createdAt,value
2024-04-07T00:00:02.790Z,93.87
2024-04-07T00:01:02.813Z,91.44
2024-04-07T00:02:02.838Z,94.13
2024-04-07T00:03:02.909Z,93.79
2024-04-07T00:04:02.946Z,90.67
2024-04-07T00:05:02.955Z,90.77
2024-04-07T00:06:03.002Z,91.05
2024-04-07T00:07:03.033Z,92.51
2024-04-07T00:08:03.114Z,90.42
2024-04-07T00:09:03.240Z,92.57
2024-04-07T00:10:03.202Z,91.73
2024-04-07T00:11:03.257Z,90.11
2024-04-07T00:13:09.877Z,50.00
2024-04-07T00:14:09.867Z,50.00
2024-04-07T00:15:09.855Z,50.00
2024-04-07T00:16:09.853Z,50.00
2024-04-07T00:17:09.845Z,50.00
2024-04-07T00:18:09.812Z,50.61
2024-04-07T00:19:09.817Z,50.79
2024-04-07T00:20:09.787Z,50.23
2024-04-07T00:21:09.780Z,50.69
2024-04-07T00:22:09.770Z,50.40
2024-04-07T00:23:09.734Z,53.69
2024-04-07T00:24:09.733Z,51.38
2024-04-07T00:25:09.706Z,52.48
2024-04-07T00:26:10.023Z,54.39
2024-04-07T00:27:09.661Z,53.17
2024-04-07T00:28:09.641Z,53.01
2024-04-07T00:29:09.632Z,52.71
2024-04-07T00:30:09.624Z,52.90
2024-04-07T00:31:09.630Z,53.22
2024-04-07T00:32:09.567Z,53.30
2024-04-07T00:33:09.556Z,54.15
2024-04-07T00:34:09.575Z,51.47
2024-04-07T00:35:09.570Z,51.49
2024-04-07T00:36:09.558Z,50.99
2024-04-07T00:37:09.538Z,51.24
2024-04-07T00:38:09.545Z,51.76
2024-04-07T00:39:09.521Z,52.58
2024-04-07T00:40:09.490Z,52.51
2024-04-07T00:41:09.493Z,52.66
2024-04-07T00:42:09.466Z,52.52
2024-04-07T00:43:09.433Z,54.94
2024-04-07T00:44:09.404Z,51.37
2024-04-07T00:45:09.401Z,53.58
2024-04-07T00:46:09.385Z,53.97
2024-04-07T00:47:09.375Z,54.87
2024-04-07T00:48:09.351Z,52.01
2024-04-07T00:49:09.318Z,53.06
2024-04-07T00:50:09.364Z,51.04
2024-04-07T00:51:09.298Z,51.58
2024-04-07T00:52:09.310Z,54.42
2024-04-07T00:53:09.269Z,52.08
2024-04-07T00:54:09.237Z,52.32
2024-04-07T00:55:09.212Z,52.64
2024-04-07T00:56:09.196Z,53.25
2024-04-07T00:57:09.303Z,54.31
2024-04-07T00:58:11.533Z,51.12
2024-04-07T00:59:09.227Z,53.45
2024-04-07T01:00:09.169Z,54.36
2024-04-07T01:01:09.312Z,54.37
2024-04-07T01:02:09.226Z,51.31
2024-04-07T01:03:09.135Z,53.00
2024-04-07T01:04:09.173Z,53.24
2024-04-07T01:05:09.148Z,51.06
2024-04-07T01:06:09.138Z,49.63
2024-04-07T01:07:09.043Z,51.64
2024-04-07T01:08:09.012Z,53.04
2024-04-07T01:09:09.083Z,52.54
2024-04-07T01:10:09.036Z,51.10
2024-04-07T01:11:09.027Z,51.95
2024-04-07T01:12:09.017Z,52.97
2024-04-07T01:13:08.989Z,53.17
2024-04-07T01:14:08.996Z,53.21
2024-04-07T01:15:08.977Z,53.44
2024-04-07T01:16:08.933Z,51.63
2024-04-07T01:17:08.944Z,52.70
2024-04-07T01:18:08.920Z,52.93
2024-04-07T01:19:08.903Z,50.00
2024-04-07T01:20:08.893Z,52.78
2024-04-07T01:21:08.888Z,54.64
2024-04-07T01:22:08.886Z,52.32
2024-04-07T01:23:08.855Z,52.00
2024-04-07T01:24:08.871Z,52.91
2024-04-07T01:25:08.823Z,50.41
2024-04-07T01:26:08.833Z,52.97
2024-04-07T01:27:08.803Z,50.85
2024-04-07T01:28:08.782Z,53.65
2024-04-07T01:29:08.849Z,50.00
2024-04-07T01:30:08.767Z,52.28
2024-04-07T01:31:08.726Z,53.43
2024-04-07T01:32:08.695Z,53.14
2024-04-07T01:33:08.718Z,52.73
2024-04-07T01:34:08.693Z,54.14
2024-04-07T01:35:08.670Z,53.12
2024-04-07T01:36:08.650Z,52.80
2024-04-07T01:37:08.639Z,52.83
2024-04-07T01:38:08.656Z,52.58
2024-04-07T01:39:08.610Z,54.40
2024-04-07T01:40:08.654Z,54.77
2024-04-07T01:41:08.589Z,51.79
2024-04-07T01:42:08.576Z,50.93
2024-04-07T01:43:08.560Z,53.58
2024-04-07T01:44:08.537Z,51.02
2024-04-07T01:45:08.536Z,50.00
2024-04-07T01:46:08.528Z,53.71
2024-04-07T01:47:08.494Z,52.20
2024-04-07T01:48:08.469Z,50.00
2024-04-07T01:49:08.473Z,54.21
2024-04-07T01:50:08.465Z,54.82
2024-04-07T01:51:08.469Z,53.10
2024-04-07T01:52:08.446Z,54.02
2024-04-07T01:53:08.410Z,53.08
2024-04-07T01:54:08.415Z,50.62
2024-04-07T01:55:08.418Z,50.08
2024-04-07T01:56:08.392Z,51.09
2024-04-07T01:57:08.355Z,53.40
2024-04-07T01:58:08.366Z,52.88
2024-04-07T01:59:08.359Z,52.13
2024-04-07T02:00:08.393Z,53.70
2024-04-07T02:01:08.399Z,50.91
2024-04-07T02:02:08.470Z,51.35
2024-04-07T02:03:08.544Z,52.10
2024-04-07T02:04:08.588Z,52.69
2024-04-07T02:05:08.631Z,51.57
2024-04-07T02:06:08.678Z,53.03
2024-04-07T02:07:08.743Z,53.06
2024-04-07T02:08:08.799Z,49.92
2024-04-07T02:09:08.840Z,53.77
2024-04-07T02:10:08.893Z,55.08
2024-04-07T02:11:08.964Z,55.60
2024-04-07T02:12:09.007Z,54.60
2024-04-07T02:13:09.058Z,54.96
2024-04-07T02:14:09.089Z,52.34
2024-04-07T02:15:09.172Z,54.57
2024-04-07T02:16:09.227Z,53.03
2024-04-07T02:17:09.336Z,51.89
2024-04-07T02:18:09.320Z,53.51
2024-04-07T02:19:09.367Z,52.44
2024-04-07T02:20:09.450Z,52.72
2024-04-07T02:21:09.461Z,51.09
2024-04-07T02:22:09.522Z,52.60
2024-04-07T02:23:09.546Z,51.40
2024-04-07T02:24:09.615Z,53.55
2024-04-07T02:25:09.643Z,53.02
2024-04-07T02:26:09.721Z,53.49
2024-04-07T02:27:09.783Z,51.82
2024-04-07T02:28:09.816Z,51.95
2024-04-07T02:29:09.879Z,52.56
2024-04-07T02:30:09.923Z,52.70
2024-04-07T02:31:09.998Z,55.17
2024-04-07T02:32:10.023Z,53.53
2024-04-07T02:33:10.069Z,52.26
2024-04-07T02:34:10.128Z,53.34
2024-04-07T02:35:10.190Z,54.66
2024-04-07T02:36:10.225Z,56.22
2024-04-07T02:37:10.259Z,55.03
2024-04-07T02:38:10.314Z,52.79
2024-04-07T02:39:10.348Z,54.20
2024-04-07T02:40:10.434Z,57.29
2024-04-07T02:41:10.475Z,55.75
2024-04-07T02:42:10.552Z,54.26
2024-04-07T02:43:10.546Z,56.08
2024-04-07T02:44:10.610Z,53.82
2024-04-07T02:45:10.672Z,55.95
2024-04-07T02:46:10.706Z,56.25
2024-04-07T02:47:10.766Z,54.92
2024-04-07T02:48:10.822Z,53.24
2024-04-07T02:49:10.868Z,55.50
2024-04-07T02:50:10.901Z,53.36
2024-04-07T02:51:10.963Z,56.10
2024-04-07T02:52:11.004Z,50.00
2024-04-07T02:53:11.088Z,55.31
2024-04-07T02:54:11.115Z,52.73
2024-04-07T02:55:11.164Z,54.59
2024-04-07T02:56:11.205Z,52.01
2024-04-07T02:57:11.262Z,53.13
2024-04-07T02:58:11.302Z,55.41
2024-04-07T02:59:11.346Z,53.68
2024-04-07T03:00:11.411Z,53.39
2024-04-07T03:01:11.465Z,52.21
2024-04-07T03:02:11.532Z,51.87
2024-04-07T03:03:11.540Z,52.84
2024-04-07T03:04:11.605Z,53.20
2024-04-07T03:05:11.629Z,54.74
2024-04-07T03:06:11.708Z,54.33
2024-04-07T03:07:11.736Z,52.58
2024-04-07T03:08:11.777Z,54.24
2024-04-07T03:09:11.818Z,54.22
2024-04-07T03:10:11.907Z,51.99
2024-04-07T03:11:11.966Z,51.22
2024-04-07T03:12:12.006Z,52.48
2024-04-07T03:13:12.046Z,53.06
2024-04-07T03:14:12.082Z,51.82
2024-04-07T03:15:12.139Z,54.81
2024-04-07T03:16:12.175Z,52.30
2024-04-07T03:17:12.227Z,53.07
2024-04-07T03:18:12.310Z,55.34
2024-04-07T03:19:12.341Z,55.76
2024-04-07T03:20:12.393Z,54.84
2024-04-07T03:21:12.439Z,55.34
2024-04-07T03:22:12.497Z,55.56
2024-04-07T03:23:12.526Z,53.15
2024-04-07T03:24:12.580Z,53.75
2024-04-07T03:25:12.643Z,54.57
2024-04-07T03:26:12.696Z,55.47
2024-04-07T03:27:12.748Z,56.21
2024-04-07T03:28:12.812Z,54.61
2024-04-07T03:29:12.850Z,54.46
2024-04-07T03:30:12.936Z,51.29
2024-04-07T03:31:12.979Z,52.23
2024-04-07T03:32:13.001Z,53.29
2024-04-07T03:33:13.075Z,53.21
2024-04-07T03:34:13.123Z,54.59
2024-04-07T03:35:13.210Z,53.99
2024-04-07T03:36:13.216Z,55.18
2024-04-07T03:37:13.261Z,55.71
2024-04-07T03:38:13.318Z,57.99
2024-04-07T03:39:13.354Z,54.53
2024-04-07T03:40:13.415Z,54.93
2024-04-07T03:41:13.504Z,57.12
2024-04-07T03:42:13.531Z,56.29
2024-04-07T03:43:13.584Z,56.32
2024-04-07T03:44:13.638Z,55.79
2024-04-07T03:45:13.692Z,57.02
2024-04-07T03:46:13.734Z,56.83
2024-04-07T03:47:13.767Z,56.10
2024-04-07T03:48:13.811Z,58.87
2024-04-07T03:49:13.874Z,60.47
2024-04-07T03:50:13.927Z,56.90
2024-04-07T03:51:13.961Z,58.70
2024-04-07T03:52:14.011Z,55.63
2024-04-07T03:53:14.050Z,58.45
2024-04-07T03:54:14.117Z,58.34
2024-04-07T03:55:14.156Z,57.34
2024-04-07T03:56:14.197Z,56.89
2024-04-07T03:57:14.266Z,58.84
2024-04-07T03:58:14.298Z,57.90
2024-04-07T03:59:14.345Z,59.18
2024-04-07T04:00:14.388Z,56.92
2024-04-07T04:01:14.471Z,60.21
2024-04-07T04:02:14.525Z,61.79
2024-04-07T04:03:14.545Z,56.85
2024-04-07T04:04:14.605Z,58.39
2024-04-07T04:05:14.664Z,59.26
2024-04-07T04:06:14.724Z,59.73
2024-04-07T04:07:14.762Z,57.21
2024-04-07T04:08:14.806Z,58.07
2024-04-07T04:09:14.866Z,60.92
2024-04-07T04:10:14.892Z,59.30
2024-04-07T04:11:14.982Z,60.00
2024-04-07T04:12:15.062Z,61.58
2024-04-07T04:13:15.072Z,59.38
2024-04-07T04:14:15.099Z,58.99
2024-04-07T04:15:15.170Z,59.32
2024-04-07T04:16:15.228Z,62.51
2024-04-07T04:17:15.254Z,60.66
2024-04-07T04:18:15.305Z,62.30
2024-04-07T04:19:15.378Z,61.68
2024-04-07T04:20:15.420Z,61.58
2024-04-07T04:21:15.467Z,62.61
2024-04-07T04:22:15.516Z,62.93
2024-04-07T04:23:15.584Z,61.48
2024-04-07T04:24:15.625Z,62.39
2024-04-07T04:25:15.671Z,61.75
2024-04-07T04:26:15.748Z,65.97
2024-04-07T04:27:15.778Z,62.10
2024-04-07T04:28:15.816Z,59.60
2024-04-07T04:29:15.868Z,65.84
2024-04-07T04:30:23.055Z,50.00
2024-04-07T04:31:30.244Z,50.00
2024-04-07T04:32:30.210Z,50.00
2024-04-07T04:33:30.213Z,50.00
2024-04-07T04:34:30.193Z,50.00
2024-04-07T04:35:30.182Z,50.00
2024-04-07T04:36:30.175Z,50.00
2024-04-07T04:37:30.867Z,52.39
2024-04-07T04:38:30.146Z,50.11
2024-04-07T04:39:30.140Z,51.17
2024-04-07T04:40:30.104Z,50.55
2024-04-07T04:41:30.107Z,54.48
2024-04-07T04:42:30.076Z,51.49
2024-04-07T04:43:30.081Z,53.74
2024-04-07T04:44:30.059Z,53.46
2024-04-07T04:45:30.055Z,52.70
2024-04-07T04:46:30.045Z,52.60
2024-04-07T04:47:30.035Z,52.15
2024-04-07T04:48:30.010Z,52.87
2024-04-07T04:49:30.018Z,52.22
2024-04-07T04:50:29.988Z,56.60
2024-04-07T04:51:29.968Z,54.02
2024-04-07T04:52:29.968Z,52.75
2024-04-07T04:53:29.950Z,54.90
2024-04-07T04:54:29.935Z,52.20
2024-04-07T04:55:29.918Z,53.35
2024-04-07T04:56:29.926Z,52.92
2024-04-07T04:57:29.907Z,55.61
2024-04-07T04:58:29.874Z,50.01
2024-04-07T04:59:29.888Z,51.01
2024-04-07T05:00:29.904Z,51.73
2024-04-07T05:01:29.864Z,54.88
2024-04-07T05:02:29.848Z,54.73
2024-04-07T05:03:29.860Z,53.53
2024-04-07T05:04:29.820Z,52.89
2024-04-07T05:05:29.818Z,50.09
2024-04-07T05:06:29.806Z,52.19
2024-04-07T05:07:29.801Z,54.20
2024-04-07T05:08:29.812Z,51.12
2024-04-07T05:09:29.774Z,53.81
2024-04-07T05:10:29.765Z,50.00
2024-04-07T05:11:29.778Z,53.18
2024-04-07T05:12:29.758Z,52.83
2024-04-07T05:13:29.771Z,53.27
2024-04-07T05:14:29.834Z,54.92
2024-04-07T05:15:29.887Z,53.04
2024-04-07T05:16:29.945Z,53.32
2024-04-07T05:17:30.019Z,55.75
2024-04-07T05:18:30.084Z,54.15
2024-04-07T05:19:30.118Z,54.47
2024-04-07T05:21:24.792Z,50.00
2024-04-07T05:22:24.813Z,50.00
2024-04-07T05:23:24.833Z,50.00
2024-04-07T05:24:24.849Z,50.00
2024-04-07T05:25:24.870Z,50.00
2024-04-07T05:26:24.883Z,54.03
2024-04-07T05:27:24.923Z,50.13
2024-04-07T05:28:24.935Z,53.01
2024-04-07T05:29:24.963Z,54.25
2024-04-07T05:30:25.886Z,52.13
2024-04-07T05:31:25.021Z,53.07
2024-04-07T05:32:25.039Z,52.21
2024-04-07T05:33:25.063Z,52.86
2024-04-07T05:34:25.066Z,53.61
2024-04-07T05:35:25.105Z,53.12
2024-04-07T05:36:25.128Z,53.37
2024-04-07T05:37:25.159Z,55.01
2024-04-07T05:38:25.176Z,51.82
2024-04-07T05:39:25.259Z,55.43
2024-04-07T05:40:25.347Z,53.55
2024-04-07T05:41:25.423Z,55.06
2024-04-07T05:42:25.528Z,55.38
2024-04-07T05:43:25.641Z,54.63
2024-04-07T05:44:25.727Z,55.59
2024-04-07T05:45:25.831Z,54.32
2024-04-07T05:46:25.913Z,54.96
2024-04-07T05:47:26.081Z,55.94
2024-04-07T05:48:26.127Z,56.23
2024-04-07T05:49:26.203Z,56.39
2024-04-07T05:50:26.286Z,56.38
2024-04-07T05:51:26.379Z,52.59
2024-04-07T05:52:26.486Z,54.68
2024-04-07T05:53:26.580Z,57.40
2024-04-07T05:54:26.640Z,57.66
2024-04-07T05:55:26.728Z,59.27
2024-04-07T05:56:26.819Z,57.85
2024-04-07T05:57:26.943Z,56.40
2024-04-07T05:58:27.013Z,56.53
2024-04-07T05:59:27.095Z,56.61
2024-04-07T06:00:27.199Z,59.38
2024-04-07T06:01:27.309Z,58.12
2024-04-07T06:02:27.401Z,58.44
2024-04-07T06:03:27.475Z,54.70
2024-04-07T06:04:27.560Z,57.74
2024-04-07T06:05:27.656Z,56.49
2024-04-07T06:06:27.760Z,59.65
2024-04-07T06:07:27.841Z,58.14
2024-04-07T06:08:27.907Z,58.45
2024-04-07T06:09:27.996Z,59.00
2024-04-07T06:10:28.088Z,56.42
2024-04-07T06:11:28.187Z,57.22
2024-04-07T06:12:28.314Z,54.67
2024-04-07T06:13:28.394Z,56.85
2024-04-07T06:14:28.484Z,58.08
2024-04-07T06:15:28.555Z,59.83
2024-04-07T06:16:28.676Z,58.23
2024-04-07T06:17:28.753Z,58.95
2024-04-07T06:18:28.827Z,57.84
2024-04-07T06:19:28.924Z,58.06
2024-04-07T06:20:29.041Z,55.94
2024-04-07T06:21:29.910Z,55.40
2024-04-07T06:22:29.200Z,57.54
2024-04-07T06:23:29.263Z,56.79
2024-04-07T06:24:29.350Z,57.29
2024-04-07T06:25:29.393Z,58.69
2024-04-07T06:26:29.466Z,58.58
2024-04-07T06:27:29.564Z,59.10
2024-04-07T06:28:29.655Z,58.80
2024-04-07T06:29:29.728Z,55.20
2024-04-07T06:30:29.788Z,59.92
2024-04-07T06:31:29.880Z,57.33
2024-04-07T06:32:29.968Z,58.39
2024-04-07T06:33:30.055Z,59.50
2024-04-07T06:34:30.145Z,57.64
2024-04-07T06:35:30.203Z,58.40
2024-04-07T06:36:31.893Z,58.52
2024-04-07T06:37:30.347Z,58.40
2024-04-07T06:38:30.330Z,59.35
2024-04-07T06:39:30.332Z,59.27
2024-04-07T06:40:30.371Z,58.92
2024-04-07T06:41:30.393Z,63.13
2024-04-07T06:42:30.415Z,58.14
2024-04-07T06:43:30.419Z,63.30
2024-04-07T06:44:30.469Z,63.64
2024-04-07T06:45:30.483Z,66.11
2024-04-07T06:46:30.528Z,62.56
2024-04-07T06:47:30.549Z,64.12
2024-04-07T06:48:30.546Z,65.47
2024-04-07T06:49:30.589Z,65.85
2024-04-07T06:50:30.605Z,63.57
2024-04-07T06:51:30.615Z,64.23
2024-04-07T06:52:30.639Z,65.65
2024-04-07T06:53:30.666Z,66.33
2024-04-07T06:54:30.677Z,65.80
2024-04-07T06:55:30.713Z,67.44
2024-04-07T06:56:30.739Z,61.75
2024-04-07T06:57:30.747Z,60.85
2024-04-07T06:58:30.770Z,63.02
2024-04-07T06:59:30.774Z,60.24
2024-04-07T07:00:30.837Z,57.81
2024-04-07T07:01:30.835Z,60.51
2024-04-07T07:02:30.906Z,57.87
2024-04-07T07:03:30.930Z,56.36
2024-04-07T07:04:30.929Z,56.49
2024-04-07T07:05:30.976Z,56.28
2024-04-07T07:06:31.014Z,56.81
2024-04-07T07:07:31.030Z,57.03
2024-04-07T07:08:31.051Z,56.75
2024-04-07T07:09:31.071Z,56.28
2024-04-07T07:10:31.102Z,57.99
2024-04-07T07:11:31.111Z,58.18
2024-04-07T07:12:31.144Z,62.57
2024-04-07T07:13:33.515Z,56.26
2024-04-07T07:14:31.190Z,57.54
2024-04-07T07:15:31.191Z,61.68
2024-04-07T07:16:31.829Z,58.01
2024-04-07T07:17:31.273Z,58.14
2024-04-07T07:18:31.285Z,59.03
2024-04-07T07:19:31.308Z,60.06
2024-04-07T07:20:31.295Z,63.27
2024-04-07T07:21:31.382Z,66.22
2024-04-07T07:22:31.388Z,63.95
2024-04-07T07:23:31.411Z,63.43
2024-04-07T07:24:31.454Z,64.51
2024-04-07T07:25:31.466Z,64.38
2024-04-07T07:26:31.507Z,65.76
2024-04-07T07:27:31.507Z,68.76
2024-04-07T07:28:31.535Z,67.30
2024-04-07T07:29:31.566Z,66.99
2024-04-07T07:30:31.593Z,68.13
2024-04-07T07:31:31.586Z,67.99
2024-04-07T07:32:31.657Z,70.24
2024-04-07T07:33:31.654Z,65.87
2024-04-07T07:34:31.659Z,64.93
2024-04-07T07:35:31.703Z,68.63
2024-04-07T07:36:32.658Z,67.49
2024-04-07T07:37:31.760Z,64.47
2024-04-07T07:38:31.776Z,67.60
2024-04-07T07:39:31.796Z,65.28
2024-04-07T07:40:31.817Z,63.55
2024-04-07T07:41:31.846Z,65.08
2024-04-07T07:42:31.886Z,67.06
2024-04-07T07:43:31.897Z,66.13
2024-04-07T07:44:31.959Z,64.92
2024-04-07T07:45:31.936Z,67.15
2024-04-07T07:46:31.997Z,64.23
2024-04-07T07:47:32.008Z,65.12
2024-04-07T07:48:32.017Z,64.97
2024-04-07T07:49:32.020Z,66.47
2024-04-07T07:50:32.071Z,66.57
2024-04-07T07:51:32.069Z,67.90
2024-04-07T07:52:32.130Z,69.21
2024-04-07T07:53:32.114Z,67.30
2024-04-07T07:54:32.218Z,64.55
2024-04-07T07:55:32.331Z,67.10
2024-04-07T07:56:32.431Z,64.70
2024-04-07T07:57:32.580Z,65.57
2024-04-07T07:58:32.678Z,65.74
2024-04-07T07:59:32.793Z,65.24
2024-04-07T08:00:32.923Z,67.46
2024-04-07T08:01:33.031Z,68.65
2024-04-07T08:02:33.152Z,68.95
2024-04-07T08:03:33.302Z,68.84
2024-04-07T08:04:33.404Z,66.87
2024-04-07T08:05:33.526Z,65.03
2024-04-07T08:06:33.621Z,68.87
2024-04-07T08:07:33.766Z,67.79
2024-04-07T08:08:33.923Z,67.74
2024-04-07T08:09:33.995Z,66.33
2024-04-07T08:10:34.116Z,65.95
2024-04-07T08:11:34.208Z,68.00
2024-04-07T08:12:38.443Z,66.07
2024-04-07T08:13:34.340Z,66.11
2024-04-07T08:14:34.373Z,66.10
2024-04-07T08:15:34.421Z,64.47
2024-04-07T08:16:34.951Z,66.11
2024-04-07T08:17:34.471Z,65.57
2024-04-07T08:18:34.467Z,65.94
2024-04-07T08:19:34.514Z,67.61
2024-04-07T08:20:34.496Z,67.30
2024-04-07T08:21:34.497Z,64.25
2024-04-07T08:22:34.554Z,64.14
2024-04-07T08:23:34.554Z,62.96
2024-04-07T08:24:34.565Z,62.88
2024-04-07T08:25:34.595Z,62.35
2024-04-07T08:26:34.607Z,61.68
2024-04-07T08:27:34.654Z,63.13
2024-04-07T08:28:34.665Z,64.59
2024-04-07T08:29:34.673Z,63.92
2024-04-07T08:30:34.668Z,62.19
2024-04-07T08:31:34.697Z,61.71
2024-04-07T08:32:34.741Z,61.29
2024-04-07T08:33:34.743Z,61.43
2024-04-07T08:34:34.752Z,59.44
2024-04-07T08:35:34.854Z,61.18
2024-04-07T08:36:34.983Z,60.19
2024-04-07T08:37:35.081Z,63.25
2024-04-07T08:38:35.734Z,61.77
2024-04-07T08:39:35.335Z,61.31
2024-04-07T08:40:35.442Z,60.88
2024-04-07T08:41:35.589Z,60.76
2024-04-07T08:42:35.700Z,58.55
2024-04-07T08:43:35.839Z,56.96
2024-04-07T08:44:35.951Z,59.17
2024-04-07T08:45:36.080Z,58.94
2024-04-07T08:46:36.202Z,62.46
2024-04-07T08:47:36.333Z,60.46
2024-04-07T08:48:36.440Z,57.28
2024-04-07T08:49:36.567Z,60.69
2024-04-07T08:50:36.692Z,60.32
2024-04-07T08:51:36.811Z,59.59
2024-04-07T08:52:36.948Z,57.64
2024-04-07T08:53:37.058Z,55.99
2024-04-07T08:54:37.186Z,56.19
2024-04-07T08:55:37.286Z,58.93
2024-04-07T08:56:37.419Z,56.56
2024-04-07T08:57:37.536Z,59.06
2024-04-07T08:58:37.652Z,58.23
2024-04-07T08:59:37.762Z,56.43
2024-04-07T09:00:37.893Z,56.17
2024-04-07T09:01:38.008Z,54.99
2024-04-07T09:02:38.126Z,54.59
2024-04-07T09:03:38.224Z,55.45
2024-04-07T09:04:38.327Z,53.83
2024-04-07T09:05:38.470Z,53.15
2024-04-07T09:06:38.571Z,54.11
2024-04-07T09:07:38.690Z,56.87
2024-04-07T09:08:38.791Z,54.35
2024-04-07T09:09:38.898Z,54.06
2024-04-07T09:10:39.199Z,53.11
2024-04-07T09:11:39.138Z,53.13
2024-04-07T09:12:39.274Z,52.40
2024-04-07T09:13:39.418Z,51.77
2024-04-07T09:14:39.486Z,54.60
2024-04-07T09:15:39.587Z,53.75
2024-04-07T09:16:39.723Z,55.73
2024-04-07T09:17:39.813Z,56.28
2024-04-07T09:18:39.945Z,55.24
2024-04-07T09:19:40.059Z,51.91
2024-04-07T09:20:40.230Z,53.91
2024-04-07T09:21:40.255Z,53.38
2024-04-07T09:22:40.377Z,52.97
2024-04-07T09:23:40.484Z,54.24
2024-04-07T09:24:40.655Z,55.21
2024-04-07T09:25:40.728Z,53.85
2024-04-07T09:26:40.840Z,57.60
2024-04-07T09:27:40.987Z,54.36
2024-04-07T09:28:41.066Z,55.44
2024-04-07T09:29:41.161Z,52.37
2024-04-07T09:30:41.278Z,53.25
2024-04-07T09:31:41.397Z,53.52
2024-04-07T09:32:41.520Z,53.92
2024-04-07T09:33:41.628Z,53.20
2024-04-07T09:34:41.749Z,51.67
2024-04-07T09:35:41.870Z,54.96
2024-04-07T09:36:42.001Z,55.83
2024-04-07T09:37:42.115Z,54.60
2024-04-07T09:38:42.234Z,54.92
2024-04-07T09:39:42.320Z,55.78
2024-04-07T09:40:42.435Z,53.57
2024-04-07T09:41:42.546Z,53.56
2024-04-07T09:42:42.655Z,53.17
2024-04-07T09:43:42.790Z,55.91
2024-04-07T09:44:42.911Z,54.02
2024-04-07T09:45:43.029Z,51.74
2024-04-07T09:46:43.155Z,53.74
2024-04-07T09:47:43.253Z,52.87
2024-04-07T09:48:43.365Z,54.44
2024-04-07T09:49:43.514Z,54.77
2024-04-07T09:50:43.626Z,56.11
2024-04-07T09:51:43.723Z,53.28
2024-04-07T09:52:43.840Z,55.83
2024-04-07T09:53:43.961Z,55.64
2024-04-07T09:54:44.072Z,58.58
2024-04-07T09:55:44.170Z,57.98
2024-04-07T09:56:44.334Z,57.16
2024-04-07T09:57:44.429Z,58.02
2024-04-07T09:58:44.560Z,59.53
2024-04-07T09:59:44.684Z,58.74
2024-04-07T10:00:44.814Z,58.43
2024-04-07T10:01:44.929Z,60.46
2024-04-07T10:02:45.060Z,59.41
2024-04-07T10:03:45.155Z,62.36
2024-04-07T10:04:45.292Z,60.82
2024-04-07T10:05:45.396Z,60.42
2024-04-07T10:06:45.542Z,62.24
2024-04-07T10:07:45.671Z,60.66
2024-04-07T10:08:45.788Z,60.20
2024-04-07T10:09:45.916Z,61.24
2024-04-07T10:10:55.272Z,60.76
2024-04-07T10:11:47.056Z,60.93
2024-04-07T10:12:46.063Z,61.23
2024-04-07T10:13:46.071Z,61.58
2024-04-07T10:14:46.094Z,62.17
2024-04-07T10:15:46.090Z,64.90
2024-04-07T10:16:46.128Z,64.03
2024-04-07T10:17:46.124Z,62.25
2024-04-07T10:18:46.132Z,62.30
2024-04-07T10:19:46.154Z,61.41
2024-04-07T10:20:46.180Z,62.24
2024-04-07T10:21:46.198Z,61.84
2024-04-07T10:22:46.195Z,61.09
2024-04-07T10:23:48.915Z,60.52
2024-04-07T10:24:46.197Z,59.40
2024-04-07T10:25:46.217Z,59.60
2024-04-07T10:26:46.310Z,58.44
2024-04-07T10:27:46.261Z,58.52
2024-04-07T10:28:46.430Z,59.81
2024-04-07T10:29:46.320Z,59.60
2024-04-07T10:30:46.335Z,61.83
2024-04-07T10:31:46.338Z,59.55
2024-04-07T10:32:46.360Z,60.49
2024-04-07T10:33:46.356Z,62.21
2024-04-07T10:34:46.372Z,61.96
2024-04-07T10:35:46.378Z,64.60
2024-04-07T10:36:46.421Z,65.02
2024-04-07T10:37:46.406Z,66.06
2024-04-07T10:38:46.410Z,66.21
2024-04-07T10:39:46.437Z,67.13
2024-04-07T10:40:46.445Z,67.78
2024-04-07T10:41:46.441Z,68.65
2024-04-07T10:42:46.470Z,67.64
2024-04-07T10:43:46.485Z,69.20
2024-04-07T10:44:46.480Z,69.05
2024-04-07T10:45:46.527Z,68.76
2024-04-07T10:46:46.553Z,70.40
2024-04-07T10:47:46.542Z,70.45
2024-04-07T10:48:46.570Z,71.37
2024-04-07T10:49:46.577Z,70.87
2024-04-07T10:50:46.617Z,70.30
2024-04-07T10:51:46.588Z,70.83
2024-04-07T10:52:46.576Z,70.15
2024-04-07T10:53:46.583Z,70.37
2024-04-07T10:54:46.600Z,70.90
2024-04-07T10:55:46.736Z,72.20
2024-04-07T10:56:46.642Z,71.06
2024-04-07T10:57:46.651Z,71.58
2024-04-07T10:58:46.652Z,73.10
2024-04-07T10:59:46.668Z,73.68
2024-04-07T11:00:46.678Z,75.32
2024-04-07T11:01:46.760Z,74.01
2024-04-07T11:02:46.855Z,73.32
2024-04-07T11:03:46.990Z,73.40
2024-04-07T11:04:47.100Z,74.09
2024-04-07T11:05:47.161Z,75.24
2024-04-07T11:06:47.267Z,74.73
2024-04-07T11:07:47.410Z,74.67
2024-04-07T11:08:47.465Z,73.92
2024-04-07T11:09:47.569Z,74.17
2024-04-07T11:10:47.706Z,74.33
2024-04-07T11:11:47.764Z,72.97
2024-04-07T11:12:47.897Z,75.68
2024-04-07T11:13:47.994Z,73.91
2024-04-07T11:14:48.098Z,74.49
2024-04-07T11:15:48.220Z,75.12
2024-04-07T11:16:48.301Z,77.01
2024-04-07T11:17:48.426Z,76.30
2024-04-07T11:18:48.522Z,76.81
2024-04-07T11:19:48.625Z,75.88
2024-04-07T11:20:48.733Z,74.03
2024-04-07T11:21:48.808Z,70.82
2024-04-07T11:22:48.945Z,71.01
2024-04-07T11:23:49.009Z,68.48
2024-04-07T11:24:49.109Z,68.14
2024-04-07T11:25:49.225Z,68.65
2024-04-07T11:26:49.312Z,68.73
2024-04-07T11:27:49.421Z,70.46
2024-04-07T11:28:49.548Z,70.36
2024-04-07T11:29:49.613Z,70.29
2024-04-07T11:30:49.703Z,69.02
2024-04-07T11:31:57.382Z,66.51
2024-04-07T11:32:50.809Z,66.61
2024-04-07T11:33:49.828Z,66.83
2024-04-07T11:34:49.815Z,66.77
2024-04-07T11:35:49.843Z,63.70
2024-04-07T11:36:49.847Z,66.80
2024-04-07T11:37:49.876Z,65.01
2024-04-07T11:38:49.904Z,68.25
2024-04-07T11:39:56.903Z,68.28
2024-04-07T11:40:50.915Z,68.36
2024-04-07T11:41:49.926Z,68.77
2024-04-07T11:42:49.952Z,69.14
2024-04-07T11:43:49.988Z,69.84
2024-04-07T11:44:49.958Z,70.67
2024-04-07T11:45:49.974Z,70.11
2024-04-07T11:46:50.025Z,70.40
2024-04-07T11:47:50.041Z,71.56
2024-04-07T11:48:50.043Z,69.66
2024-04-07T11:49:50.061Z,67.61
2024-04-07T11:50:50.060Z,64.94
2024-04-07T11:51:50.062Z,66.25
2024-04-07T11:52:50.159Z,66.17
2024-04-07T11:53:50.256Z,67.32
2024-04-07T11:54:50.387Z,67.72
2024-04-07T11:55:50.455Z,67.75
2024-04-07T11:56:50.584Z,67.12
2024-04-07T11:57:50.652Z,68.07
2024-04-07T11:58:50.779Z,68.50
2024-04-07T11:59:50.909Z,68.02
2024-04-07T12:00:50.981Z,67.54
2024-04-07T12:01:51.086Z,66.12
2024-04-07T12:02:51.187Z,67.52
2024-04-07T12:03:51.294Z,69.29
2024-04-07T12:04:51.413Z,68.90
2024-04-07T12:05:51.479Z,68.46
2024-04-07T12:06:51.594Z,68.97
2024-04-07T12:07:51.684Z,68.49
2024-04-07T12:08:51.803Z,68.40
2024-04-07T12:09:51.883Z,68.27
2024-04-07T12:10:51.992Z,68.81
2024-04-07T12:11:52.093Z,69.27
2024-04-07T12:12:52.199Z,68.63
2024-04-07T12:13:52.300Z,67.64
2024-04-07T12:14:52.470Z,69.85
2024-04-07T12:15:52.525Z,68.98
2024-04-07T12:16:52.615Z,69.32
2024-04-07T12:17:52.724Z,68.79
2024-04-07T12:18:52.821Z,70.79
2024-04-07T12:19:52.928Z,72.26
2024-04-07T12:20:53.011Z,72.88
2024-04-07T12:21:53.104Z,72.38
2024-04-07T12:22:53.210Z,72.86
2024-04-07T12:23:53.322Z,71.25
2024-04-07T12:24:55.458Z,70.65
2024-04-07T12:25:53.427Z,71.73
2024-04-07T12:26:53.496Z,68.77
2024-04-07T12:27:53.555Z,67.33
2024-04-07T12:28:53.607Z,65.91
2024-04-07T12:29:53.636Z,64.04
2024-04-07T12:30:53.721Z,64.67
2024-04-07T12:31:53.834Z,64.44
2024-04-07T12:32:53.937Z,64.30
2024-04-07T12:33:54.002Z,66.51
2024-04-07T12:34:54.105Z,63.83
2024-04-07T12:35:54.214Z,65.20
2024-04-07T12:36:54.325Z,65.97
2024-04-07T12:37:54.422Z,66.68
2024-04-07T12:38:54.526Z,65.52
2024-04-07T12:39:54.624Z,65.25
2024-04-07T12:40:54.752Z,67.15
2024-04-07T12:41:54.829Z,69.75
2024-04-07T12:42:54.950Z,70.47
2024-04-07T12:43:55.037Z,70.86
2024-04-07T12:44:55.158Z,73.55
2024-04-07T12:45:55.270Z,74.51
2024-04-07T12:46:55.376Z,75.61
2024-04-07T12:47:55.468Z,78.39
2024-04-07T12:48:55.595Z,79.55
2024-04-07T12:49:55.707Z,79.11
2024-04-07T12:50:55.793Z,77.66
2024-04-07T12:51:55.975Z,77.21
2024-04-07T12:52:56.027Z,76.46
2024-04-07T12:53:56.120Z,78.39
2024-04-07T12:54:56.218Z,77.97